CheckWX is a tool to help pilots better visualize weather data.  It is not intended as a substitute for an official pre-flight weather briefing.

02:37:57 UTC

LLBG METAR
Ben Gurion International Airport
Tel Aviv, Israel
Current

18 mins ago

LLBG 230220Z VRB03KT 7000 BKN020 13/12 Q1014 NOSIG
Observed
Mar-23 @ 02:20 UTC
Wind
  • Variable at 3 KTS
Visibility
7,001 meters
Flight Rules
MVFR
Cloud Levels
  • Broken at 2,000' AGL
Temperature
13°C / 55°F
Dewpoint
12°C / 54°F
Humidity
94%
Altimeter
29.94" Hg
Pressure
1013.92 hPa
Previous

48 mins ago

LLBG 230150Z VRB03KT 7000 BKN020 13/11 Q1014 NOSIG
Observed
Mar-23 @ 01:50 UTC
Wind
  • Variable at 3 KTS
Visibility
7,001 meters
Flight Rules
MVFR
Cloud Levels
  • Broken at 2,000' AGL
Temperature
13°C / 55°F
Dewpoint
11°C / 52°F
Humidity
88%
Altimeter
29.94" Hg
Pressure
1013.92 hPa
Previous

1 hour ago

LLBG 230120Z VRB02KT 7000 BKN020 14/12 Q1014 NOSIG
Observed
Mar-23 @ 01:20 UTC
Wind
  • Variable at 2 KTS
Visibility
7,001 meters
Flight Rules
MVFR
Cloud Levels
  • Broken at 2,000' AGL
Temperature
14°C / 57°F
Dewpoint
12°C / 54°F
Humidity
88%
Altimeter
29.94" Hg
Pressure
1013.92 hPa